SAS031 ENBR-ENVA
Flight info
| Callsign | SAS031 |
|---|---|
| Flight time | 0h 54m |
| Altitude | 37000 |
| Route | INTUM DCT NELSU |
| Aircraft | B738/M-SDFGHIRWXYZ/LB1 |
Departure
| Time | 2026-04-28 10:52 |
|---|---|
| Airport | Bergen Airport, Flesland (ENBR) |
Arrival
| Time | 2026-04-28 11:46 |
|---|---|
| Airport | Trondheim Airport, Værnes (ENVA) |
| Time | Latitude | Longitude | Altitude | Speed | Heading |
|---|---|---|---|---|---|
| 2026-04-28 10:17 | 60.28736 | 5.22893 | 173 ft | 0 kts | 82° |
| 2026-04-28 10:41 | 60.28736 | 5.22891 | 173 ft | 0 kts | 82° |
| 2026-04-28 10:42 | 60.28735 | 5.22878 | 173 ft | 3 kts | 82° |
| 2026-04-28 10:42 | 60.28732 | 5.22840 | 173 ft | 3 kts | 82° |
| 2026-04-28 10:42 | 60.28730 | 5.22803 | 173 ft | 3 kts | 82° |
| 2026-04-28 10:43 | 60.28727 | 5.22767 | 173 ft | 0 kts | 82° |
| 2026-04-28 10:44 | 60.28727 | 5.22773 | 173 ft | 0 kts | 92° |
| 2026-04-28 10:45 | 60.28718 | 5.22801 | 173 ft | 3 kts | 136° |
| 2026-04-28 10:45 | 60.28705 | 5.22807 | 173 ft | 1 kts | 177° |
| 2026-04-28 10:45 | 60.28699 | 5.22805 | 173 ft | 2 kts | 190° |
| 2026-04-28 10:45 | 60.28682 | 5.22779 | 173 ft | 4 kts | 233° |
| 2026-04-28 10:46 | 60.28679 | 5.22751 | 173 ft | 1 kts | 262° |
| 2026-04-28 10:46 | 60.28679 | 5.22750 | 173 ft | 0 kts | 263° |
| 2026-04-28 10:46 | 60.28677 | 5.22709 | 173 ft | 6 kts | 265° |
| 2026-04-28 10:46 | 60.28670 | 5.22604 | 173 ft | 8 kts | 261° |
| 2026-04-28 10:47 | 60.28670 | 5.22502 | 173 ft | 7 kts | 291° |
| 2026-04-28 10:47 | 60.28680 | 5.22421 | 173 ft | 6 kts | 263° |
| 2026-04-28 10:47 | 60.28654 | 5.22375 | 174 ft | 5 kts | 190° |
| 2026-04-28 10:47 | 60.28617 | 5.22382 | 174 ft | 6 kts | 172° |
| 2026-04-28 10:48 | 60.28576 | 5.22394 | 174 ft | 6 kts | 171° |
| 2026-04-28 10:48 | 60.28528 | 5.22413 | 174 ft | 8 kts | 171° |
| 2026-04-28 10:48 | 60.28463 | 5.22432 | 174 ft | 10 kts | 171° |
| 2026-04-28 10:48 | 60.28411 | 5.22448 | 179 ft | 5 kts | 171° |
| 2026-04-28 10:49 | 60.28369 | 5.22462 | 180 ft | 9 kts | 170° |
| 2026-04-28 10:49 | 60.28293 | 5.22490 | 181 ft | 12 kts | 171° |
| 2026-04-28 10:49 | 60.28201 | 5.22519 | 180 ft | 14 kts | 171° |
| 2026-04-28 10:49 | 60.28111 | 5.22546 | 181 ft | 7 kts | 176° |
| 2026-04-28 10:50 | 60.28078 | 5.22530 | 183 ft | 3 kts | 208° |
| 2026-04-28 10:50 | 60.28072 | 5.22520 | 183 ft | 2 kts | 219° |
| 2026-04-28 10:50 | 60.28050 | 5.22404 | 183 ft | 8 kts | 260° |
| 2026-04-28 10:50 | 60.28044 | 5.22300 | 194 ft | 6 kts | 275° |
| 2026-04-28 10:51 | 60.28064 | 5.22248 | 192 ft | 4 kts | 331° |
| 2026-04-28 10:51 | 60.28090 | 5.22233 | 199 ft | 4 kts | 349° |
| 2026-04-28 10:51 | 60.28135 | 5.22218 | 183 ft | 14 kts | 351° |
| 2026-04-28 10:51 | 60.28434 | 5.22120 | 179 ft | 78 kts | 350° |
| 2026-04-28 10:52 | 60.29175 | 5.21874 | 177 ft | 138 kts | 351° |
| 2026-04-28 10:52 | 60.30291 | 5.21512 | 392 ft | 174 kts | 351° |
| 2026-04-28 10:52 | 60.31525 | 5.21153 | 1265 ft | 177 kts | 352° |
| 2026-04-28 10:52 | 60.32752 | 5.20798 | 2177 ft | 184 kts | 351° |
| 2026-04-28 10:53 | 60.34107 | 5.20333 | 2706 ft | 212 kts | 349° |
| 2026-04-28 10:53 | 60.35625 | 5.19756 | 3360 ft | 232 kts | 349° |
| 2026-04-28 10:53 | 60.37253 | 5.19136 | 4270 ft | 246 kts | 349° |
| 2026-04-28 10:53 | 60.38977 | 5.18518 | 5208 ft | 256 kts | 349° |
| 2026-04-28 10:54 | 60.40752 | 5.17928 | 6281 ft | 259 kts | 350° |
| 2026-04-28 10:54 | 60.42545 | 5.17348 | 7355 ft | 261 kts | 350° |
| 2026-04-28 10:54 | 60.44349 | 5.16754 | 8383 ft | 265 kts | 349° |
| 2026-04-28 10:54 | 60.46177 | 5.16138 | 9404 ft | 268 kts | 349° |
| 2026-04-28 10:55 | 60.48044 | 5.15672 | 10385 ft | 273 kts | 359° |
| 2026-04-28 10:55 | 60.49920 | 5.16375 | 11314 ft | 278 kts | 18° |
| 2026-04-28 10:55 | 60.51615 | 5.18335 | 12195 ft | 287 kts | 33° |
| 2026-04-28 10:55 | 60.53278 | 5.20826 | 12690 ft | 305 kts | 33° |
| 2026-04-28 10:56 | 60.55052 | 5.23413 | 13187 ft | 322 kts | 32° |
| 2026-04-28 10:56 | 60.56926 | 5.26091 | 13772 ft | 335 kts | 32° |
| 2026-04-28 10:56 | 60.58848 | 5.28841 | 14608 ft | 340 kts | 32° |
| 2026-04-28 10:56 | 60.60785 | 5.31633 | 15450 ft | 342 kts | 32° |
| 2026-04-28 10:57 | 60.62075 | 5.33505 | 16010 ft | 345 kts | 32° |
| 2026-04-28 10:57 | 60.64058 | 5.36390 | 16879 ft | 347 kts | 32° |
| 2026-04-28 10:57 | 60.66030 | 5.39258 | 17722 ft | 349 kts | 32° |
| 2026-04-28 10:57 | 60.67995 | 5.42114 | 18553 ft | 352 kts | 31° |
| 2026-04-28 10:58 | 60.70002 | 5.45033 | 19272 ft | 356 kts | 31° |
| 2026-04-28 10:58 | 60.72022 | 5.47976 | 20042 ft | 357 kts | 31° |
| 2026-04-28 10:58 | 60.74054 | 5.50945 | 20730 ft | 360 kts | 31° |
| 2026-04-28 10:58 | 60.76102 | 5.53946 | 21407 ft | 363 kts | 31° |
| 2026-04-28 10:59 | 60.78165 | 5.56971 | 22053 ft | 366 kts | 31° |
| 2026-04-28 10:59 | 60.80245 | 5.60024 | 22677 ft | 369 kts | 31° |
| 2026-04-28 10:59 | 60.82343 | 5.63108 | 23302 ft | 373 kts | 31° |
| 2026-04-28 10:59 | 60.84461 | 5.66228 | 23913 ft | 376 kts | 31° |
| 2026-04-28 11:00 | 60.86595 | 5.69377 | 24431 ft | 380 kts | 31° |
| 2026-04-28 11:00 | 60.88748 | 5.72560 | 24937 ft | 382 kts | 31° |
| 2026-04-28 11:00 | 60.90910 | 5.75763 | 25469 ft | 384 kts | 31° |
| 2026-04-28 11:00 | 60.93080 | 5.78985 | 25937 ft | 386 kts | 31° |
| 2026-04-28 11:01 | 60.95269 | 5.82239 | 26419 ft | 389 kts | 31° |
| 2026-04-28 11:01 | 60.97469 | 5.85523 | 26888 ft | 391 kts | 32° |
| 2026-04-28 11:01 | 60.99646 | 5.88920 | 27350 ft | 394 kts | 33° |
| 2026-04-28 11:01 | 61.01801 | 5.92446 | 27794 ft | 396 kts | 34° |
| 2026-04-28 11:02 | 61.03956 | 5.96027 | 28230 ft | 398 kts | 34° |
| 2026-04-28 11:02 | 61.06127 | 5.99598 | 28641 ft | 400 kts | 33° |
| 2026-04-28 11:02 | 61.08296 | 6.03113 | 29055 ft | 401 kts | 33° |
| 2026-04-28 11:02 | 61.10533 | 6.06717 | 29474 ft | 403 kts | 33° |
| 2026-04-28 11:03 | 61.12722 | 6.10263 | 29830 ft | 405 kts | 33° |
| 2026-04-28 11:03 | 61.14945 | 6.13893 | 30180 ft | 407 kts | 33° |
| 2026-04-28 11:03 | 61.17169 | 6.17543 | 30480 ft | 409 kts | 33° |
| 2026-04-28 11:03 | 61.19412 | 6.21229 | 30745 ft | 411 kts | 33° |
| 2026-04-28 11:04 | 61.21658 | 6.24919 | 31091 ft | 411 kts | 33° |
| 2026-04-28 11:04 | 61.23897 | 6.28601 | 31506 ft | 409 kts | 33° |
| 2026-04-28 11:04 | 61.26123 | 6.32268 | 31916 ft | 408 kts | 33° |
| 2026-04-28 11:04 | 61.28343 | 6.35932 | 32343 ft | 407 kts | 33° |
| 2026-04-28 11:05 | 61.30558 | 6.39597 | 32773 ft | 405 kts | 33° |
| 2026-04-28 11:05 | 61.32761 | 6.43249 | 33162 ft | 404 kts | 33° |
| 2026-04-28 11:05 | 61.34956 | 6.46897 | 33550 ft | 403 kts | 33° |
| 2026-04-28 11:05 | 61.37147 | 6.50541 | 33942 ft | 402 kts | 33° |
| 2026-04-28 11:06 | 61.39331 | 6.54180 | 34314 ft | 401 kts | 32° |
| 2026-04-28 11:06 | 61.41513 | 6.57820 | 34641 ft | 400 kts | 33° |
| 2026-04-28 11:06 | 61.43688 | 6.61459 | 34917 ft | 400 kts | 33° |
| 2026-04-28 11:06 | 61.45867 | 6.65110 | 35201 ft | 400 kts | 33° |
| 2026-04-28 11:07 | 61.48038 | 6.68756 | 35477 ft | 400 kts | 33° |
| 2026-04-28 11:07 | 61.50189 | 6.72372 | 35755 ft | 400 kts | 33° |
| 2026-04-28 11:07 | 61.52361 | 6.76031 | 36018 ft | 400 kts | 33° |
| 2026-04-28 11:07 | 61.54529 | 6.79690 | 36299 ft | 400 kts | 33° |
| 2026-04-28 11:08 | 61.56697 | 6.83360 | 36576 ft | 400 kts | 33° |
| 2026-04-28 11:08 | 61.58864 | 6.87032 | 36824 ft | 400 kts | 33° |
| 2026-04-28 11:08 | 61.61030 | 6.90709 | 37030 ft | 400 kts | 33° |
| 2026-04-28 11:08 | 61.63195 | 6.94390 | 37308 ft | 400 kts | 33° |
| 2026-04-28 11:09 | 61.65368 | 6.98087 | 37447 ft | 403 kts | 33° |
| 2026-04-28 11:09 | 61.69753 | 7.05579 | 37477 ft | 407 kts | 34° |
| 2026-04-28 11:10 | 61.74141 | 7.13118 | 37499 ft | 404 kts | 34° |
| 2026-04-28 11:10 | 61.78443 | 7.20526 | 37489 ft | 400 kts | 34° |
| 2026-04-28 11:11 | 61.82763 | 7.27981 | 37482 ft | 401 kts | 34° |
| 2026-04-28 11:11 | 61.87103 | 7.35511 | 37472 ft | 400 kts | 34° |
| 2026-04-28 11:12 | 61.91407 | 7.43009 | 37478 ft | 400 kts | 34° |
| 2026-04-28 11:12 | 61.95687 | 7.50487 | 37471 ft | 401 kts | 34° |
| 2026-04-28 11:13 | 61.99998 | 7.58049 | 37472 ft | 401 kts | 34° |
| 2026-04-28 11:13 | 62.04297 | 7.65622 | 37461 ft | 402 kts | 34° |
| 2026-04-28 11:14 | 62.08611 | 7.73242 | 37456 ft | 404 kts | 34° |
| 2026-04-28 11:14 | 62.12937 | 7.80924 | 37479 ft | 404 kts | 34° |
| 2026-04-28 11:15 | 62.17254 | 7.88615 | 37458 ft | 402 kts | 34° |
| 2026-04-28 11:15 | 62.21554 | 7.96299 | 37478 ft | 403 kts | 34° |
| 2026-04-28 11:16 | 62.25860 | 8.04028 | 37516 ft | 404 kts | 34° |
| 2026-04-28 11:16 | 62.30158 | 8.11781 | 37500 ft | 402 kts | 34° |
| 2026-04-28 11:17 | 62.34440 | 8.19524 | 37459 ft | 401 kts | 34° |
| 2026-04-28 11:17 | 62.38699 | 8.27251 | 37481 ft | 403 kts | 34° |
| 2026-04-28 11:18 | 62.42987 | 8.35070 | 37493 ft | 403 kts | 34° |
| 2026-04-28 11:18 | 62.47265 | 8.42902 | 37472 ft | 402 kts | 34° |
| 2026-04-28 11:19 | 62.51533 | 8.50742 | 37478 ft | 403 kts | 34° |
| 2026-04-28 11:19 | 62.55809 | 8.58628 | 37462 ft | 403 kts | 34° |
| 2026-04-28 11:20 | 62.60078 | 8.66531 | 37498 ft | 404 kts | 34° |
| 2026-04-28 11:20 | 62.64370 | 8.74503 | 37496 ft | 407 kts | 34° |
| 2026-04-28 11:21 | 62.68667 | 8.82532 | 37462 ft | 406 kts | 34° |
| 2026-04-28 11:21 | 62.72934 | 8.90528 | 37469 ft | 404 kts | 34° |
| 2026-04-28 11:22 | 62.77195 | 8.98538 | 37496 ft | 405 kts | 35° |
| 2026-04-28 11:22 | 62.81458 | 9.06592 | 37469 ft | 403 kts | 35° |
| 2026-04-28 11:23 | 62.85690 | 9.14616 | 37467 ft | 402 kts | 35° |
| 2026-04-28 11:23 | 62.89923 | 9.22669 | 37461 ft | 404 kts | 35° |
| 2026-04-28 11:23 | 62.92064 | 9.26751 | 36730 ft | 411 kts | 34° |
| 2026-04-28 11:24 | 62.94223 | 9.30879 | 36052 ft | 412 kts | 34° |
| 2026-04-28 11:24 | 62.96383 | 9.35024 | 35347 ft | 412 kts | 34° |
| 2026-04-28 11:24 | 62.98526 | 9.39152 | 34613 ft | 406 kts | 34° |
| 2026-04-28 11:24 | 63.00642 | 9.43237 | 33783 ft | 402 kts | 34° |
| 2026-04-28 11:25 | 63.02719 | 9.47252 | 33331 ft | 390 kts | 34° |
| 2026-04-28 11:25 | 63.04727 | 9.51145 | 32839 ft | 379 kts | 34° |
| 2026-04-28 11:25 | 63.06685 | 9.54936 | 32367 ft | 370 kts | 33° |
| 2026-04-28 11:25 | 63.08571 | 9.58693 | 31909 ft | 365 kts | 38° |
| 2026-04-28 11:26 | 63.10139 | 9.63173 | 31389 ft | 373 kts | 50° |
| 2026-04-28 11:26 | 63.11218 | 9.68523 | 30836 ft | 392 kts | 63° |
| 2026-04-28 11:26 | 63.11757 | 9.74556 | 30211 ft | 406 kts | 72° |
| 2026-04-28 11:26 | 63.12155 | 9.80746 | 29551 ft | 407 kts | 71° |
| 2026-04-28 11:27 | 63.12605 | 9.86960 | 28794 ft | 410 kts | 70° |
| 2026-04-28 11:27 | 63.13082 | 9.93155 | 27944 ft | 417 kts | 70° |
| 2026-04-28 11:27 | 63.13556 | 9.99491 | 27278 ft | 418 kts | 71° |
| 2026-04-28 11:27 | 63.14004 | 10.05854 | 26606 ft | 417 kts | 71° |
| 2026-04-28 11:28 | 63.14428 | 10.12149 | 26012 ft | 410 kts | 72° |
| 2026-04-28 11:28 | 63.14847 | 10.18342 | 25418 ft | 403 kts | 71° |
| 2026-04-28 11:28 | 63.15270 | 10.24428 | 24845 ft | 397 kts | 71° |
| 2026-04-28 11:28 | 63.15693 | 10.30429 | 24283 ft | 391 kts | 71° |
| 2026-04-28 11:29 | 63.16105 | 10.36352 | 23623 ft | 387 kts | 72° |
| 2026-04-28 11:29 | 63.16505 | 10.42207 | 23033 ft | 381 kts | 72° |
| 2026-04-28 11:29 | 63.16893 | 10.47965 | 22466 ft | 377 kts | 72° |
| 2026-04-28 11:29 | 63.17155 | 10.51855 | 22088 ft | 378 kts | 73° |
| 2026-04-28 11:30 | 63.17538 | 10.57561 | 21504 ft | 380 kts | 73° |
| 2026-04-28 11:30 | 63.18316 | 10.69195 | 20343 ft | 384 kts | 74° |
| 2026-04-28 11:30 | 63.18704 | 10.75067 | 19727 ft | 384 kts | 75° |
| 2026-04-28 11:31 | 63.19078 | 10.80868 | 19129 ft | 377 kts | 75° |
| 2026-04-28 11:31 | 63.19444 | 10.86576 | 18480 ft | 372 kts | 76° |
| 2026-04-28 11:31 | 63.19804 | 10.92195 | 17842 ft | 365 kts | 76° |
| 2026-04-28 11:31 | 63.20158 | 10.97706 | 17250 ft | 358 kts | 76° |
| 2026-04-28 11:32 | 63.20504 | 11.03118 | 16666 ft | 351 kts | 76° |
| 2026-04-28 11:32 | 63.20841 | 11.08422 | 16087 ft | 345 kts | 76° |
| 2026-04-28 11:32 | 63.21172 | 11.13672 | 15546 ft | 344 kts | 76° |
| 2026-04-28 11:32 | 63.21504 | 11.18949 | 14968 ft | 346 kts | 77° |
| 2026-04-28 11:33 | 63.21835 | 11.24259 | 14390 ft | 349 kts | 77° |
| 2026-04-28 11:33 | 63.22157 | 11.29537 | 14224 ft | 337 kts | 77° |
| 2026-04-28 11:33 | 63.22461 | 11.34586 | 14100 ft | 324 kts | 77° |
| 2026-04-28 11:33 | 63.22746 | 11.39452 | 13964 ft | 313 kts | 79° |
| 2026-04-28 11:34 | 63.22695 | 11.44242 | 13700 ft | 312 kts | 92° |
| 2026-04-28 11:34 | 63.22364 | 11.49007 | 13270 ft | 311 kts | 95° |
| 2026-04-28 11:34 | 63.21978 | 11.53709 | 12879 ft | 308 kts | 94° |
| 2026-04-28 11:34 | 63.21917 | 11.58360 | 12499 ft | 296 kts | 73° |
| 2026-04-28 11:35 | 63.22526 | 11.62607 | 12191 ft | 286 kts | 64° |
| 2026-04-28 11:35 | 63.23147 | 11.66784 | 11833 ft | 284 kts | 68° |
| 2026-04-28 11:35 | 63.23700 | 11.70932 | 11482 ft | 274 kts | 64° |
| 2026-04-28 11:35 | 63.24660 | 11.74393 | 11164 ft | 256 kts | 42° |
| 2026-04-28 11:36 | 63.25871 | 11.77210 | 10892 ft | 249 kts | 43° |
| 2026-04-28 11:36 | 63.27060 | 11.79974 | 10491 ft | 246 kts | 35° |
| 2026-04-28 11:36 | 63.28589 | 11.81383 | 9983 ft | 238 kts | 1° |
| 2026-04-28 11:36 | 63.30178 | 11.80601 | 9508 ft | 236 kts | 332° |
| 2026-04-28 11:37 | 63.31364 | 11.78202 | 9014 ft | 235 kts | 307° |
| 2026-04-28 11:37 | 63.32187 | 11.75106 | 8421 ft | 228 kts | 304° |
| 2026-04-28 11:37 | 63.33038 | 11.72163 | 7812 ft | 223 kts | 307° |
| 2026-04-28 11:37 | 63.33900 | 11.69329 | 7304 ft | 219 kts | 306° |
| 2026-04-28 11:38 | 63.34741 | 11.66533 | 6884 ft | 213 kts | 306° |
| 2026-04-28 11:38 | 63.35534 | 11.63833 | 6524 ft | 202 kts | 305° |
| 2026-04-28 11:38 | 63.36272 | 11.61291 | 6245 ft | 189 kts | 305° |
| 2026-04-28 11:38 | 63.36965 | 11.58900 | 6036 ft | 179 kts | 305° |
| 2026-04-28 11:39 | 63.37636 | 11.56593 | 6022 ft | 179 kts | 306° |
| 2026-04-28 11:39 | 63.38473 | 11.54548 | 6001 ft | 177 kts | 323° |
| 2026-04-28 11:39 | 63.39567 | 11.53204 | 5808 ft | 182 kts | 339° |
| 2026-04-28 11:39 | 63.40753 | 11.52343 | 5567 ft | 178 kts | 340° |
| 2026-04-28 11:40 | 63.41942 | 11.51426 | 5362 ft | 184 kts | 339° |
| 2026-04-28 11:40 | 63.43152 | 11.50459 | 5122 ft | 184 kts | 336° |
| 2026-04-28 11:40 | 63.44236 | 11.48988 | 4907 ft | 182 kts | 318° |
| 2026-04-28 11:40 | 63.45051 | 11.46832 | 4671 ft | 183 kts | 300° |
| 2026-04-28 11:41 | 63.45506 | 11.44175 | 4449 ft | 184 kts | 281° |
| 2026-04-28 11:41 | 63.45561 | 11.41308 | 4246 ft | 185 kts | 271° |
| 2026-04-28 11:41 | 63.45581 | 11.38427 | 4054 ft | 185 kts | 272° |
| 2026-04-28 11:41 | 63.45604 | 11.35551 | 4032 ft | 188 kts | 272° |
| 2026-04-28 11:42 | 63.45620 | 11.32646 | 4013 ft | 180 kts | 272° |
| 2026-04-28 11:42 | 63.45634 | 11.29847 | 3744 ft | 180 kts | 271° |
| 2026-04-28 11:42 | 63.45648 | 11.27083 | 3464 ft | 175 kts | 271° |
| 2026-04-28 11:42 | 63.45659 | 11.24382 | 3200 ft | 171 kts | 271° |
| 2026-04-28 11:43 | 63.45670 | 11.21760 | 2917 ft | 168 kts | 271° |
| 2026-04-28 11:43 | 63.45681 | 11.19168 | 2665 ft | 166 kts | 271° |
| 2026-04-28 11:43 | 63.45690 | 11.16648 | 2411 ft | 158 kts | 270° |
| 2026-04-28 11:43 | 63.45699 | 11.14185 | 2179 ft | 160 kts | 270° |
| 2026-04-28 11:44 | 63.45707 | 11.11775 | 1889 ft | 149 kts | 270° |
| 2026-04-28 11:44 | 63.45714 | 11.09469 | 1684 ft | 149 kts | 271° |
| 2026-04-28 11:44 | 63.45721 | 11.07214 | 1480 ft | 139 kts | 270° |
| 2026-04-28 11:44 | 63.45728 | 11.05026 | 1190 ft | 141 kts | 271° |
| 2026-04-28 11:45 | 63.45735 | 11.02873 | 986 ft | 142 kts | 271° |
| 2026-04-28 11:45 | 63.45739 | 11.00691 | 770 ft | 140 kts | 270° |
| 2026-04-28 11:45 | 63.45748 | 10.98450 | 584 ft | 144 kts | 269° |
| 2026-04-28 11:45 | 63.45750 | 10.96185 | 339 ft | 145 kts | 269° |
| 2026-04-28 11:46 | 63.45754 | 10.93992 | 87 ft | 135 kts | 270° |
| 2026-04-28 11:46 | 63.45764 | 10.92169 | 40 ft | 92 kts | 270° |
| 2026-04-28 11:46 | 63.45764 | 10.91255 | 35 ft | 25 kts | 270° |
| 2026-04-28 11:46 | 63.45762 | 10.91029 | 34 ft | 14 kts | 268° |
| 2026-04-28 11:47 | 63.45759 | 10.90810 | 33 ft | 14 kts | 265° |
| 2026-04-28 11:47 | 63.45739 | 10.90591 | 31 ft | 14 kts | 253° |
| 2026-04-28 11:47 | 63.45696 | 10.90420 | 32 ft | 9 kts | 224° |
| 2026-04-28 11:47 | 63.45642 | 10.90373 | 31 ft | 8 kts | 182° |
| 2026-04-28 11:48 | 63.45600 | 10.90441 | 32 ft | 9 kts | 105° |
| 2026-04-28 11:48 | 63.45597 | 10.90628 | 33 ft | 15 kts | 90° |
| 2026-04-28 11:48 | 63.45597 | 10.90851 | 35 ft | 14 kts | 90° |
| 2026-04-28 11:48 | 63.45597 | 10.91066 | 35 ft | 14 kts | 90° |
| 2026-04-28 11:49 | 63.45597 | 10.91273 | 36 ft | 12 kts | 90° |
| 2026-04-28 11:49 | 63.45597 | 10.91434 | 36 ft | 9 kts | 90° |
| 2026-04-28 11:49 | 63.45597 | 10.91534 | 36 ft | 4 kts | 90° |
| 2026-04-28 11:49 | 63.45590 | 10.91565 | 38 ft | 2 kts | 133° |
| 2026-04-28 11:50 | 63.45575 | 10.91577 | 37 ft | 3 kts | 166° |
| 2026-04-28 11:50 | 63.45559 | 10.91581 | 38 ft | 3 kts | 175° |
| 2026-04-28 11:50 | 63.45536 | 10.91582 | 38 ft | 2 kts | 179° |
| 2026-04-28 11:50 | 63.45522 | 10.91582 | 38 ft | 2 kts | 180° |
| 2026-04-28 11:51 | 63.45504 | 10.91582 | 38 ft | 1 kts | 180° |
| 2026-04-28 11:51 | 63.45503 | 10.91582 | 38 ft | 0 kts | 180° |
| 2026-04-28 11:51 | 63.45501 | 10.91582 | 38 ft | 0 kts | 181° |